Gundelfingen Airport


Codes: EDMU/
Name: Gundelfingen Airport
City: Gundelfingen a.d.Donau
Country: Germany
Elevation: 1447 ft.

Photos at Gundelfingen Airport


   Photos courtesy of SpottingLog. You can add your own sightings and photos by signing up for a free trial today.



No photos found.

Weather at Gundelfingen Airport


Time (UTC)DescriptionTempratureWindCloud coverageVisibilityPressureHumidity
16-Jun-2024 03:00Overcast Clouds12°C7 mph, SW92%10000m1013hPa86%
16-Jun-2024 06:00Broken Clouds13°C4 mph, SW71%10000m1013hPa81%
16-Jun-2024 09:00Overcast Clouds17°C7 mph, S87%10000m1013hPa67%
16-Jun-2024 12:00Overcast Clouds19°C7 mph, S94%10000m1011hPa63%
16-Jun-2024 15:00Light Rain20°C7 mph, SW72%10000m1011hPa65%
16-Jun-2024 18:00Light Rain17°C4 mph, SW84%10000m1012hPa79%
16-Jun-2024 21:00Light Rain13°C2 mph, N56%10000m1014hPa89%
17-Jun-2024 00:00Light Rain13°C4 mph, NW77%10000m1015hPa93%
17-Jun-2024 03:00Light Rain12°C4 mph, S100%10000m1016hPa95%
17-Jun-2024 06:00Overcast Clouds15°C4 mph, S100%10000m1016hPa89%
17-Jun-2024 09:00Overcast Clouds19°C4 mph, SW100%10000m1016hPa73%
17-Jun-2024 12:00Light Rain22°C4 mph, W80%10000m1015hPa64%
17-Jun-2024 15:00Light Rain19°C9 mph, NW100%10000m1016hPa86%
17-Jun-2024 18:00Light Rain17°C4 mph, SE99%10000m1017hPa85%
17-Jun-2024 21:00Overcast Clouds14°C2 mph, S85%10000m1018hPa91%
18-Jun-2024 00:00Overcast Clouds13°C2 mph, SE85%10000m1017hPa91%
18-Jun-2024 03:00Scattered Clouds12°C2 mph, E48%10000m1017hPa94%
18-Jun-2024 06:00Broken Clouds16°C2 mph, SE64%10000m1017hPa89%
18-Jun-2024 09:00Overcast Clouds21°C4 mph, SW85%10000m1016hPa75%
18-Jun-2024 12:00Overcast Clouds25°C2 mph, W92%10000m1016hPa62%
18-Jun-2024 15:00Overcast Clouds25°C0 mph, N100%10000m1015hPa63%
18-Jun-2024 18:00Overcast Clouds23°C2 mph, NE98%10000m1014hPa80%
18-Jun-2024 21:00Light Rain19°C0 mph, SW100%5478m1015hPa87%
19-Jun-2024 00:00Light Rain17°C7 mph, NW96%10000m1017hPa92%
19-Jun-2024 03:00Light Rain16°C2 mph, W98%10000m1018hPa94%
19-Jun-2024 06:00Overcast Clouds18°C2 mph, NW87%10000m1019hPa90%
19-Jun-2024 09:00Broken Clouds22°C2 mph, W77%10000m1019hPa70%
19-Jun-2024 12:00Broken Clouds24°C7 mph, N77%10000m1019hPa65%
19-Jun-2024 15:00Scattered Clouds23°C9 mph, NE34%10000m1020hPa76%
19-Jun-2024 18:00Few Clouds21°C7 mph, NE21%10000m1021hPa85%
19-Jun-2024 21:00Clear Sky16°C7 mph, NE1%10000m1022hPa91%
20-Jun-2024 00:00Clear Sky15°C7 mph, NE3%10000m1020hPa91%
20-Jun-2024 03:00Clear Sky14°C4 mph, E3%10000m1019hPa96%
20-Jun-2024 06:00Clear Sky18°C9 mph, E6%10000m1018hPa88%
20-Jun-2024 09:00Clear Sky24°C9 mph, E1%10000m1016hPa74%
20-Jun-2024 12:00Clear Sky28°C2 mph, E2%10000m1015hPa61%
20-Jun-2024 15:00Overcast Clouds28°C7 mph, NE95%10000m1013hPa72%
20-Jun-2024 18:00Overcast Clouds25°C7 mph, E89%10000m1012hPa86%
20-Jun-2024 21:00Moderate Rain19°C9 mph, NE100%10000m1011hPa87%
21-Jun-2024 00:00Overcast Clouds18°C4 mph, SW97%10000m1010hPa90%